Time;durP1;ratioP1;P1;durP2;ratioP2;P2;SDS_P1;SDS_P2;PMS_P1;PMS_P2;Temp;Humidity;BMP_temperature;BMP_pressure;BME280_temperature;BME280_humidity;BME280_pressure;Samples;Min_cycle;Max_cycle;Signal;HPM_P1;HPM_P2
2022/10/22 00:02:20;;;;;;;14.60;9.20;;;;;;;;;;5011784;28;99068;-76
2022/10/22 00:04:47;;;;;;;21.67;9.60;;;;;;;;;;5007070;28;100897;-76
2022/10/22 00:07:14;;;;;;;22.58;9.55;;;;;;;;;;4991723;28;98483;-76
2022/10/22 00:09:40;;;;;;;15.73;10.05;;;;;;;;;;4993815;28;100027;-76
2022/10/22 00:12:07;;;;;;;16.98;10.80;;;;;;;;;;4990877;28;98454;-76
2022/10/22 00:14:34;;;;;;;19.60;10.70;;;;;;;;;;4991129;28;99911;-76
2022/10/22 00:17:00;;;;;;;27.30;10.43;;;;;;;;;;4989461;28;100299;-76
2022/10/22 00:19:27;;;;;;;18.05;10.35;;;;;;;;;;4990284;28;98427;-76
2022/10/22 00:21:53;;;;;;;19.92;11.13;;;;;;;;;;5005810;28;99938;-76
2022/10/22 00:24:21;;;;;;;21.80;10.95;;;;;;;;;;4988971;28;101955;-76
2022/10/22 00:26:47;;;;;;;18.92;10.85;;;;;;;;;;4990009;28;98454;-77
2022/10/22 00:29:14;;;;;;;19.00;11.25;;;;;;;;;;4990711;28;99115;-77
2022/10/22 00:31:40;;;;;;;22.20;10.90;;;;;;;;;;4992152;28;99320;-76
2022/10/22 00:34:06;;;;;;;16.88;11.07;;;;;;;;;;4990219;28;99979;-76
2022/10/22 00:36:32;;;;;;;19.33;11.50;;;;;;;;;;4990501;28;100367;-77
2022/10/22 00:38:59;;;;;;;20.48;12.18;;;;;;;;;;5005206;28;99117;-76
2022/10/22 00:41:25;;;;;;;15.95;10.93;;;;;;;;;;5010485;28;100631;-76
2022/10/22 00:43:52;;;;;;;22.85;11.63;;;;;;;;;;5009931;28;100177;-76
2022/10/22 00:46:19;;;;;;;24.77;12.15;;;;;;;;;;5010038;28;98228;-76
2022/10/22 00:48:45;;;;;;;20.75;11.73;;;;;;;;;;5010207;28;98565;-77
2022/10/22 00:51:12;;;;;;;18.50;11.50;;;;;;;;;;5010152;28;100251;-77
2022/10/22 00:53:42;;;;;;;23.88;11.93;;;;;;;;;;5012308;28;99270;-76
2022/10/22 00:56:08;;;;;;;19.40;11.77;;;;;;;;;;5008550;28;100202;-76
2022/10/22 00:58:37;;;;;;;28.33;12.45;;;;;;;;;;4989657;28;98540;-76
2022/10/22 01:01:05;;;;;;;25.10;11.40;;;;;;;;;;4989292;28;100169;-76
2022/10/22 01:03:34;;;;;;;18.33;12.18;;;;;;;;;;4989946;28;100396;-76
2022/10/22 01:06:02;;;;;;;18.92;11.27;;;;;;;;;;4989046;28;98515;-76
2022/10/22 01:08:31;;;;;;;19.92;11.90;;;;;;;;;;4989848;28;99826;-76
2022/10/22 01:10:57;;;;;;;20.10;11.30;;;;;;;;;;4989831;28;99747;-76
2022/10/22 01:13:31;;;;;;;19.88;10.48;;;;;;;;;;5008372;28;99009;-76
2022/10/22 01:16:03;;;;;;;15.15;11.30;;;;;;;;;;5011272;28;99975;-77
2022/10/22 01:18:58;;;;;;;24.55;11.60;;;;;;;;;;4970046;28;100613;-76
2022/10/22 01:21:24;;;;;;;19.50;11.52;;;;;;;;;;4964390;28;101103;-76
2022/10/22 01:24:04;;;;;;;22.20;11.55;;;;;;;;;;4969524;28;100440;-76
2022/10/22 01:26:36;;;;;;;18.77;11.18;;;;;;;;;;4971994;28;98463;-76
2022/10/22 01:29:11;;;;;;;19.35;11.48;;;;;;;;;;4989118;28;99879;-76
2022/10/22 01:31:43;;;;;;;21.83;12.25;;;;;;;;;;4989094;28;100143;-76
2022/10/22 01:34:11;;;;;;;19.33;11.45;;;;;;;;;;4988091;28;98489;-76
2022/10/22 01:36:37;;;;;;;20.08;11.18;;;;;;;;;;4989778;28;99879;-76
2022/10/22 01:39:04;;;;;;;24.17;11.38;;;;;;;;;;4992262;28;100282;-76
2022/10/22 01:41:30;;;;;;;20.75;11.48;;;;;;;;;;4988719;28;99933;-76
2022/10/22 01:43:57;;;;;;;20.48;9.85;;;;;;;;;;4988529;28;100841;-76
2022/10/22 01:46:24;;;;;;;20.23;10.65;;;;;;;;;;4990941;28;98608;-76
2022/10/22 01:49:11;;;;;;;19.58;10.27;;;;;;;;;;4988656;28;99963;-76
2022/10/22 01:51:56;;;;;;;17.33;9.30;;;;;;;;;;4989336;28;100180;-76
2022/10/22 01:54:33;;;;;;;20.52;10.50;;;;;;;;;;4990189;28;98443;-76
2022/10/22 01:57:17;;;;;;;16.20;10.38;;;;;;;;;;4988433;28;99938;-76
2022/10/22 01:59:53;;;;;;;21.85;10.52;;;;;;;;;;4991654;28;100399;-76
2022/10/22 02:02:19;;;;;;;22.70;10.63;;;;;;;;;;4996074;28;98244;-76
2022/10/22 02:05:01;;;;;;;19.20;9.77;;;;;;;;;;4992184;28;100445;-76
2022/10/22 02:07:31;;;;;;;18.13;10.32;;;;;;;;;;4993677;28;98417;-76
2022/10/22 02:09:58;;;;;;;19.33;9.60;;;;;;;;;;4991171;28;100162;-76
2022/10/22 02:12:25;;;;;;;18.40;10.57;;;;;;;;;;4993144;28;100225;-76
2022/10/22 02:14:52;;;;;;;22.10;10.45;;;;;;;;;;4992427;28;98566;-76
2022/10/22 02:17:20;;;;;;;17.73;9.43;;;;;;;;;;4991804;28;99998;-76
2022/10/22 02:19:55;;;;;;;19.25;10.75;;;;;;;;;;4998459;28;100103;-76
2022/10/22 02:22:22;;;;;;;23.00;10.55;;;;;;;;;;5015975;28;98490;-76
2022/10/22 02:24:49;;;;;;;22.55;10.75;;;;;;;;;;5011266;28;100261;-76
2022/10/22 02:27:15;;;;;;;20.40;10.52;;;;;;;;;;5001910;28;97899;-76
2022/10/22 02:29:56;;;;;;;22.23;11.05;;;;;;;;;;4992453;28;99179;-76
2022/10/22 02:32:25;;;;;;;24.08;10.77;;;;;;;;;;4990881;28;100599;-76
2022/10/22 02:34:51;;;;;;;25.35;11.40;;;;;;;;;;4991716;28;99261;-76
2022/10/22 02:37:18;;;;;;;23.65;11.10;;;;;;;;;;5001671;28;100904;-76
2022/10/22 02:39:45;;;;;;;20.80;10.18;;;;;;;;;;5012014;28;100465;-76
2022/10/22 02:42:11;;;;;;;20.42;11.32;;;;;;;;;;5012625;28;99672;-76
2022/10/22 02:44:38;;;;;;;30.73;11.05;;;;;;;;;;5014437;28;100445;-76
2022/10/22 02:47:04;;;;;;;23.95;11.63;;;;;;;;;;5012102;28;98575;-76
2022/10/22 02:49:30;;;;;;;27.95;11.32;;;;;;;;;;5011849;28;99045;-76
2022/10/22 02:51:57;;;;;;;22.90;10.80;;;;;;;;;;5011269;28;99606;-76
2022/10/22 02:54:23;;;;;;;21.98;11.07;;;;;;;;;;5011349;28;98512;-76
2022/10/22 02:56:50;;;;;;;21.85;11.60;;;;;;;;;;5002557;28;99947;-76
2022/10/22 02:59:16;;;;;;;21.25;11.13;;;;;;;;;;4990224;28;100259;-76
2022/10/22 03:01:42;;;;;;;17.17;10.98;;;;;;;;;;4992022;28;98541;-76
2022/10/22 03:04:08;;;;;;;18.95;10.57;;;;;;;;;;4991692;28;100054;-75
2022/10/22 03:06:35;;;;;;;21.15;11.40;;;;;;;;;;4994105;28;100184;-76
2022/10/22 03:09:01;;;;;;;26.50;10.00;;;;;;;;;;4991562;28;99933;-76
2022/10/22 03:11:27;;;;;;;20.88;10.38;;;;;;;;;;4991924;28;100089;-75
2022/10/22 03:13:54;;;;;;;33.35;12.65;;;;;;;;;;4990815;28;98597;-76
2022/10/22 03:16:20;;;;;;;17.83;10.85;;;;;;;;;;4992179;28;99968;-76
2022/10/22 03:18:46;;;;;;;19.95;11.20;;;;;;;;;;4991371;28;100175;-76
2022/10/22 03:21:33;;;;;;;24.42;10.68;;;;;;;;;;4991071;28;98546;-76
2022/10/22 03:24:01;;;;;;;23.73;11.02;;;;;;;;;;4991037;28;100018;-76
2022/10/22 03:26:28;;;;;;;21.38;11.13;;;;;;;;;;4990698;28;99363;-76
2022/10/22 03:28:54;;;;;;;24.95;11.60;;;;;;;;;;5009673;28;98567;-76
2022/10/22 03:31:21;;;;;;;20.88;10.63;;;;;;;;;;5011050;28;100241;-76
2022/10/22 03:33:47;;;;;;;14.93;10.50;;;;;;;;;;5007152;28;98996;-76
2022/10/22 03:36:13;;;;;;;19.13;10.20;;;;;;;;;;4991332;28;99955;-76
2022/10/22 03:38:40;;;;;;;20.63;11.07;;;;;;;;;;4991304;28;100178;-76
2022/10/22 03:41:06;;;;;;;25.55;11.30;;;;;;;;;;4990985;28;98303;-76
2022/10/22 03:43:34;;;;;;;19.33;10.20;;;;;;;;;;4991490;28;99188;-76
2022/10/22 03:46:00;;;;;;;23.52;11.25;;;;;;;;;;4991102;28;101664;-76
2022/10/22 03:48:26;;;;;;;15.02;9.70;;;;;;;;;;4990415;28;99255;-76
2022/10/22 03:50:53;;;;;;;21.25;10.40;;;;;;;;;;4994283;28;100684;-76
2022/10/22 03:53:19;;;;;;;31.92;10.48;;;;;;;;;;4991203;28;98698;-76
2022/10/22 03:55:45;;;;;;;20.25;10.15;;;;;;;;;;4989742;28;99922;-76
2022/10/22 03:58:12;;;;;;;16.35;9.93;;;;;;;;;;4990385;28;99637;-76
2022/10/22 04:00:38;;;;;;;17.48;9.27;;;;;;;;;;4991643;28;98595;-76
2022/10/22 04:03:05;;;;;;;20.35;9.63;;;;;;;;;;4991608;28;99439;-76
2022/10/22 04:05:32;;;;;;;22.10;10.25;;;;;;;;;;4991885;28;99447;-76
2022/10/22 04:07:59;;;;;;;26.70;10.40;;;;;;;;;;4990749;28;98537;-76
2022/10/22 04:10:25;;;;;;;19.60;9.90;;;;;;;;;;4993030;28;100407;-76
2022/10/22 04:12:51;;;;;;;21.27;9.52;;;;;;;;;;4991099;28;99108;-76
2022/10/22 04:15:18;;;;;;;18.65;9.20;;;;;;;;;;4991542;28;100711;-76
2022/10/22 04:17:44;;;;;;;22.15;11.05;;;;;;;;;;4989913;28;100440;-76
2022/10/22 04:20:10;;;;;;;18.50;9.82;;;;;;;;;;5007945;28;98460;-76
2022/10/22 04:22:37;;;;;;;23.35;10.60;;;;;;;;;;5010836;28;99146;-76
2022/10/22 04:25:03;;;;;;;26.20;10.73;;;;;;;;;;4998314;28;100302;-75
2022/10/22 04:27:31;;;;;;;21.38;9.68;;;;;;;;;;4990723;28;98478;-77
2022/10/22 04:29:57;;;;;;;19.50;9.68;;;;;;;;;;4990828;28;99954;-76
2022/10/22 04:32:24;;;;;;;23.40;10.15;;;;;;;;;;4993513;28;100449;-76
2022/10/22 04:34:50;;;;;;;16.98;11.43;;;;;;;;;;4990237;28;100475;-76
2022/10/22 04:37:17;;;;;;;23.80;10.52;;;;;;;;;;5007211;28;100845;-76
2022/10/22 04:39:43;;;;;;;22.55;9.80;;;;;;;;;;5006691;28;98485;-76
2022/10/22 04:42:10;;;;;;;19.33;9.00;;;;;;;;;;4991404;28;100141;-76
2022/10/22 04:44:36;;;;;;;23.30;10.00;;;;;;;;;;4990141;28;99739;-76
2022/10/22 04:47:02;;;;;;;24.75;11.20;;;;;;;;;;4990032;28;98522;-76
2022/10/22 04:49:29;;;;;;;25.00;10.35;;;;;;;;;;4990325;28;99999;-76
2022/10/22 04:51:55;;;;;;;19.33;10.75;;;;;;;;;;4989011;28;100646;-76
2022/10/22 04:54:22;;;;;;;26.05;10.80;;;;;;;;;;5004967;28;98287;-76
2022/10/22 04:56:48;;;;;;;27.52;11.70;;;;;;;;;;4989787;28;100180;-76
2022/10/22 04:59:14;;;;;;;28.35;11.60;;;;;;;;;;4989645;28;98798;-76
2022/10/22 05:01:42;;;;;;;25.13;10.73;;;;;;;;;;4987744;28;100921;-76
2022/10/22 05:04:13;;;;;;;26.95;11.18;;;;;;;;;;4988383;28;100095;-76
2022/10/22 05:06:39;;;;;;;18.55;10.52;;;;;;;;;;4988311;28;98984;-76
2022/10/22 05:09:07;;;;;;;21.65;10.90;;;;;;;;;;4989910;28;99997;-76
2022/10/22 05:11:35;;;;;;;19.77;9.82;;;;;;;;;;4989120;28;100273;-76
2022/10/22 05:14:02;;;;;;;19.48;10.73;;;;;;;;;;4988060;28;98640;-76
2022/10/22 05:16:29;;;;;;;22.35;9.35;;;;;;;;;;4987106;28;100028;-77
2022/10/22 05:18:56;;;;;;;27.50;12.02;;;;;;;;;;4991502;28;97834;-76
2022/10/22 05:21:23;;;;;;;24.85;10.20;;;;;;;;;;4986525;28;99328;-76
2022/10/22 05:23:49;;;;;;;24.77;11.20;;;;;;;;;;4989216;28;100272;-76
2022/10/22 05:26:17;;;;;;;20.05;11.30;;;;;;;;;;4987865;28;99377;-77
2022/10/22 05:28:44;;;;;;;19.13;9.52;;;;;;;;;;4987544;28;101072;-76
2022/10/22 05:31:11;;;;;;;19.48;9.98;;;;;;;;;;4989702;28;99656;-76
2022/10/22 05:33:38;;;;;;;20.00;10.10;;;;;;;;;;4989984;28;99031;-77
2022/10/22 05:36:05;;;;;;;26.70;10.73;;;;;;;;;;4992905;28;100176;-76
2022/10/22 05:38:32;;;;;;;19.55;10.30;;;;;;;;;;4996106;28;100455;-76
2022/10/22 05:40:59;;;;;;;29.02;11.57;;;;;;;;;;4992238;28;99990;-76
2022/10/22 05:43:26;;;;;;;25.83;10.60;;;;;;;;;;4993274;28;99454;-76
2022/10/22 05:45:52;;;;;;;24.80;10.68;;;;;;;;;;4992807;28;98489;-76
2022/10/22 05:48:18;;;;;;;25.80;11.25;;;;;;;;;;4992528;28;100198;-76
2022/10/22 05:50:49;;;;;;;18.10;9.90;;;;;;;;;;4992221;28;101172;-76
2022/10/22 05:53:17;;;;;;;23.48;10.32;;;;;;;;;;4993784;28;98522;-76
2022/10/22 05:55:43;;;;;;;20.45;10.55;;;;;;;;;;4991933;28;100076;-76
2022/10/22 05:58:10;;;;;;;27.98;11.02;;;;;;;;;;4992669;28;100297;-76
2022/10/22 06:00:37;;;;;;;30.92;11.35;;;;;;;;;;4996196;28;98442;-76
2022/10/22 06:03:03;;;;;;;29.20;11.48;;;;;;;;;;4991616;28;100441;-76
2022/10/22 06:05:29;;;;;;;20.95;11.27;;;;;;;;;;4993114;28;98798;-76
2022/10/22 06:07:56;;;;;;;28.02;10.55;;;;;;;;;;4992839;28;99874;-76
2022/10/22 06:10:22;;;;;;;27.45;10.95;;;;;;;;;;4991706;28;100454;-76
2022/10/22 06:12:49;;;;;;;34.55;11.60;;;;;;;;;;4992594;28;100036;-76
2022/10/22 06:15:16;;;;;;;26.02;10.13;;;;;;;;;;4992061;28;99158;-76
2022/10/22 06:17:43;;;;;;;24.48;11.48;;;;;;;;;;4992474;28;100156;-76
2022/10/22 06:20:10;;;;;;;32.60;11.35;;;;;;;;;;4995945;28;98589;-76
2022/10/22 06:22:36;;;;;;;28.10;11.55;;;;;;;;;;4991697;28;99358;-76
2022/10/22 06:25:03;;;;;;;24.70;11.30;;;;;;;;;;4991865;28;99005;-76
2022/10/22 06:27:30;;;;;;;25.73;11.23;;;;;;;;;;4992461;28;100150;-76
2022/10/22 06:29:56;;;;;;;27.67;10.68;;;;;;;;;;4990873;28;100218;-76
2022/10/22 06:32:22;;;;;;;40.88;11.60;;;;;;;;;;4992330;28;97798;-77
2022/10/22 06:34:49;;;;;;;29.88;10.90;;;;;;;;;;4992196;28;99405;-77
2022/10/22 06:37:16;;;;;;;35.72;11.38;;;;;;;;;;4991161;28;100492;-76
2022/10/22 06:39:42;;;;;;;26.70;10.75;;;;;;;;;;4991826;28;99318;-76
2022/10/22 06:42:08;;;;;;;26.27;10.82;;;;;;;;;;4994983;28;100752;-76
2022/10/22 06:44:35;;;;;;;26.77;11.05;;;;;;;;;;4991067;28;98485;-77
2022/10/22 06:47:01;;;;;;;25.27;10.25;;;;;;;;;;4991547;28;99915;-76
2022/10/22 06:49:27;;;;;;;28.10;11.52;;;;;;;;;;4991756;28;100389;-75
2022/10/22 06:51:54;;;;;;;19.23;8.35;;;;;;;;;;4991025;28;98517;-75
2022/10/22 06:54:21;;;;;;;25.48;10.15;;;;;;;;;;4992872;28;100903;-75
2022/10/22 06:56:47;;;;;;;28.02;9.73;;;;;;;;;;4991716;28;99457;-75
2022/10/22 06:59:13;;;;;;;26.23;10.45;;;;;;;;;;4991967;28;98532;-75
2022/10/22 07:01:41;;;;;;;33.85;11.10;;;;;;;;;;4989849;28;99311;-75
2022/10/22 07:04:08;;;;;;;21.42;10.35;;;;;;;;;;4994052;28;100897;-75
2022/10/22 07:06:35;;;;;;;26.63;9.05;;;;;;;;;;4990980;28;100662;-75
2022/10/22 07:09:01;;;;;;;20.17;9.73;;;;;;;;;;4991875;28;99666;-75
2022/10/22 07:11:29;;;;;;;19.15;8.68;;;;;;;;;;4992685;28;98509;-75
2022/10/22 07:13:56;;;;;;;24.08;8.98;;;;;;;;;;4991619;28;100322;-75
2022/10/22 07:16:23;;;;;;;20.05;8.52;;;;;;;;;;4991759;28;100612;-75
2022/10/22 07:18:57;;;;;;;22.58;9.10;;;;;;;;;;4990176;28;98504;-75
2022/10/22 07:21:24;;;;;;;22.77;9.88;;;;;;;;;;4992743;28;99983;-75
2022/10/22 07:23:53;;;;;;;26.10;9.68;;;;;;;;;;4991855;28;100237;-75
2022/10/22 07:26:20;;;;;;;24.77;10.05;;;;;;;;;;4994790;28;99086;-75
2022/10/22 07:28:47;;;;;;;19.88;8.07;;;;;;;;;;4990445;28;101130;-76
2022/10/22 07:31:13;;;;;;;21.23;7.63;;;;;;;;;;4991751;28;98566;-76
2022/10/22 07:33:40;;;;;;;21.85;7.00;;;;;;;;;;4991273;28;99927;-77
2022/10/22 07:36:07;;;;;;;19.40;7.03;;;;;;;;;;4991610;28;100163;-75
2022/10/22 07:38:34;;;;;;;16.42;5.93;;;;;;;;;;4991355;28;99259;-75
2022/10/22 07:41:01;;;;;;;14.32;6.13;;;;;;;;;;4991133;28;100035;-76
2022/10/22 07:43:27;;;;;;;13.18;5.88;;;;;;;;;;4991731;28;100179;-75
2022/10/22 07:45:56;;;;;;;14.95;5.68;;;;;;;;;;4992167;28;97757;-75
2022/10/22 07:48:23;;;;;;;14.77;5.18;;;;;;;;;;4993826;28;99294;-75
2022/10/22 07:50:50;;;;;;;15.77;5.00;;;;;;;;;;4991006;28;99583;-74
2022/10/22 07:53:16;;;;;;;16.38;4.93;;;;;;;;;;4991731;28;99183;-74
2022/10/22 07:55:43;;;;;;;11.50;5.00;;;;;;;;;;4990418;28;100179;-75
2022/10/22 07:58:09;;;;;;;8.60;4.70;;;;;;;;;;4991373;28;98493;-74
2022/10/22 08:00:36;;;;;;;12.80;4.60;;;;;;;;;;4992149;28;100182;-74
2022/10/22 08:03:03;;;;;;;17.42;4.68;;;;;;;;;;4989900;28;99436;-74
2022/10/22 08:05:29;;;;;;;13.85;4.45;;;;;;;;;;4991893;28;99155;-74
2022/10/22 08:07:55;;;;;;;17.85;4.75;;;;;;;;;;4990750;28;100301;-75
2022/10/22 08:10:21;;;;;;;12.65;5.30;;;;;;;;;;4992274;28;99663;-75
2022/10/22 08:12:48;;;;;;;16.30;5.18;;;;;;;;;;4991223;28;99234;-75
2022/10/22 08:15:14;;;;;;;21.05;4.28;;;;;;;;;;4989908;28;100257;-75
2022/10/22 08:17:40;;;;;;;13.23;4.30;;;;;;;;;;4988365;28;100374;-74
2022/10/22 08:20:08;;;;;;;12.73;4.13;;;;;;;;;;4985991;28;99636;-73
2022/10/22 08:22:34;;;;;;;11.85;3.83;;;;;;;;;;4986855;28;100957;-73
2022/10/22 08:25:00;;;;;;;19.27;3.83;;;;;;;;;;4991148;28;98997;-74
2022/10/22 08:27:26;;;;;;;18.65;3.40;;;;;;;;;;4990608;28;99892;-74
2022/10/22 08:29:53;;;;;;;9.05;3.28;;;;;;;;;;4990326;28;100180;-75
2022/10/22 08:32:19;;;;;;;14.98;3.38;;;;;;;;;;4990167;28;100246;-75
2022/10/22 08:34:45;;;;;;;10.23;3.38;;;;;;;;;;4990975;28;99432;-74
2022/10/22 08:37:13;;;;;;;7.70;2.88;;;;;;;;;;4990274;28;98689;-73
2022/10/22 08:39:40;;;;;;;15.20;4.43;;;;;;;;;;4990960;28;100008;-74
2022/10/22 08:42:25;;;;;;;13.35;3.38;;;;;;;;;;4990097;28;100679;-74
2022/10/22 08:45:05;;;;;;;16.52;3.67;;;;;;;;;;4987946;28;99324;-75
2022/10/22 08:47:50;;;;;;;12.15;3.50;;;;;;;;;;4983688;28;100577;-74
2022/10/22 08:50:21;;;;;;;13.23;3.33;;;;;;;;;;4990151;28;100251;-74
2022/10/22 08:52:51;;;;;;;12.80;3.10;;;;;;;;;;4994036;28;98450;-74
2022/10/22 08:55:17;;;;;;;17.55;3.45;;;;;;;;;;4990586;28;99525;-74
2022/10/22 08:58:07;;;;;;;10.00;3.00;;;;;;;;;;4987977;28;98554;-74
2022/10/22 09:00:33;;;;;;;12.52;3.20;;;;;;;;;;4991743;28;99983;-74
2022/10/22 09:03:05;;;;;;;18.90;3.95;;;;;;;;;;4987790;28;99326;-74
2022/10/22 09:05:50;;;;;;;14.77;3.22;;;;;;;;;;4990122;28;98506;-74
2022/10/22 09:08:22;;;;;;;15.90;3.42;;;;;;;;;;4989693;28;100116;-75
2022/10/22 09:10:50;;;;;;;16.00;3.20;;;;;;;;;;4978565;28;100399;-75
2022/10/22 09:13:19;;;;;;;11.63;3.55;;;;;;;;;;4988290;28;98590;-75
2022/10/22 09:15:51;;;;;;;9.30;3.00;;;;;;;;;;4992408;28;98932;-74
2022/10/22 09:18:20;;;;;;;17.70;3.35;;;;;;;;;;4984174;28;98523;-75
2022/10/22 09:20:48;;;;;;;17.08;3.58;;;;;;;;;;4988590;28;99873;-75
2022/10/22 09:23:33;;;;;;;15.07;3.53;;;;;;;;;;4985884;28;100376;-75
2022/10/22 09:26:00;;;;;;;16.13;2.90;;;;;;;;;;4976527;28;97797;-75
2022/10/22 09:28:26;;;;;;;11.90;3.33;;;;;;;;;;4990592;28;98396;-75
2022/10/22 09:30:52;;;;;;;14.02;3.00;;;;;;;;;;4989905;28;100314;-75
2022/10/22 09:33:26;;;;;;;15.57;3.65;;;;;;;;;;4987899;28;99769;-74
2022/10/22 09:35:54;;;;;;;12.55;2.80;;;;;;;;;;4975463;28;101130;-76
2022/10/22 09:38:24;;;;;;;16.65;3.42;;;;;;;;;;4990996;28;99386;-75
2022/10/22 09:40:53;;;;;;;20.10;3.58;;;;;;;;;;4987639;28;100737;-75
2022/10/22 09:43:19;;;;;;;10.02;3.78;;;;;;;;;;4989544;28;99855;-76
2022/10/22 09:45:46;;;;;;;17.85;4.10;;;;;;;;;;4990352;28;98510;-76
2022/10/22 09:48:13;;;;;;;11.60;3.05;;;;;;;;;;4989323;28;99875;-76
2022/10/22 09:50:42;;;;;;;8.75;2.65;;;;;;;;;;4986313;28;99330;-75
2022/10/22 09:53:13;;;;;;;11.85;3.78;;;;;;;;;;4990801;28;99246;-75
2022/10/22 09:55:40;;;;;;;17.55;3.33;;;;;;;;;;4990475;28;100318;-75
2022/10/22 09:58:09;;;;;;;16.58;3.03;;;;;;;;;;4990547;28;100123;-73
2022/10/22 10:00:36;;;;;;;11.50;2.97;;;;;;;;;;4981077;28;98875;-76
2022/10/22 10:03:03;;;;;;;10.88;2.60;;;;;;;;;;5002926;28;100296;-74
2022/10/22 10:05:33;;;;;;;11.32;3.40;;;;;;;;;;4976835;28;98551;-75
2022/10/22 10:08:13;;;;;;;9.00;2.67;;;;;;;;;;4975470;28;100008;-76
2022/10/22 10:10:45;;;;;;;8.50;3.33;;;;;;;;;;4985850;28;100394;-76
2022/10/22 10:13:21;;;;;;;10.48;2.60;;;;;;;;;;4976907;28;98528;-75
2022/10/22 10:16:07;;;;;;;9.80;2.90;;;;;;;;;;4991410;28;100414;-75
2022/10/22 10:18:52;;;;;;;11.27;2.65;;;;;;;;;;4991480;28;99562;-75
2022/10/22 10:21:38;;;;;;;6.65;2.90;;;;;;;;;;4990502;28;99522;-75
2022/10/22 10:24:04;;;;;;;11.75;3.20;;;;;;;;;;4996839;28;99589;-75
2022/10/22 10:26:38;;;;;;;15.25;2.90;;;;;;;;;;4983523;28;98549;-76
2022/10/22 10:29:12;;;;;;;12.95;2.70;;;;;;;;;;4974733;28;99179;-75
2022/10/22 10:31:46;;;;;;;10.60;2.88;;;;;;;;;;4974173;28;100184;-75
2022/10/22 10:34:23;;;;;;;21.55;2.90;;;;;;;;;;4987951;28;100482;-76
2022/10/22 10:37:09;;;;;;;9.77;2.53;;;;;;;;;;4990512;28;99579;-76
2022/10/22 10:39:44;;;;;;;9.45;2.60;;;;;;;;;;5007727;28;100152;-76
2022/10/22 10:42:20;;;;;;;9.73;2.45;;;;;;;;;;4994195;28;97814;-76
2022/10/22 10:44:55;;;;;;;6.85;3.15;;;;;;;;;;4996122;28;99006;-76
2022/10/22 10:47:37;;;;;;;11.38;2.90;;;;;;;;;;4992087;28;98610;-76
2022/10/22 10:50:15;;;;;;;12.00;2.65;;;;;;;;;;4973244;28;100287;-74
2022/10/22 10:53:02;;;;;;;11.45;2.80;;;;;;;;;;4980134;28;100083;-74
2022/10/22 10:55:41;;;;;;;11.18;2.55;;;;;;;;;;4990772;28;98864;-73
2022/10/22 10:58:08;;;;;;;12.05;2.90;;;;;;;;;;4991206;28;99937;-74
2022/10/22 11:00:39;;;;;;;13.60;2.58;;;;;;;;;;4991573;28;99820;-74
2022/10/22 11:03:15;;;;;;;9.30;2.58;;;;;;;;;;4994200;28;98824;-73
2022/10/22 11:05:44;;;;;;;9.25;2.55;;;;;;;;;;4994017;28;99216;-74
2022/10/22 11:08:14;;;;;;;8.57;2.58;;;;;;;;;;4994304;28;98905;-75
2022/10/22 11:10:52;;;;;;;8.07;2.45;;;;;;;;;;4993149;28;99179;-73
2022/10/22 11:13:19;;;;;;;12.20;2.30;;;;;;;;;;4993499;28;100223;-73
2022/10/22 11:15:49;;;;;;;13.40;2.67;;;;;;;;;;4990113;28;101749;-74
2022/10/22 11:18:26;;;;;;;12.70;2.65;;;;;;;;;;4992586;28;99841;-74
2022/10/22 11:21:07;;;;;;;10.23;2.40;;;;;;;;;;4993259;28;100451;-74
2022/10/22 11:23:50;;;;;;;19.63;2.10;;;;;;;;;;4993275;28;98624;-74
2022/10/22 11:26:42;;;;;;;11.77;2.95;;;;;;;;;;4988767;28;100134;-75
2022/10/22 11:29:16;;;;;;;8.65;2.03;;;;;;;;;;4986122;28;101625;-76
2022/10/22 11:31:43;;;;;;;13.15;2.40;;;;;;;;;;4993906;28;98495;-75
2022/10/22 11:34:18;;;;;;;9.00;2.67;;;;;;;;;;4994429;28;99037;-76
2022/10/22 11:37:02;;;;;;;8.32;2.40;;;;;;;;;;4992339;28;100334;-76
2022/10/22 11:39:34;;;;;;;6.50;2.30;;;;;;;;;;4992611;28;99330;-77
2022/10/22 11:42:03;;;;;;;8.30;2.05;;;;;;;;;;4979921;28;101194;-75
2022/10/22 11:44:31;;;;;;;9.93;2.15;;;;;;;;;;4985438;28;98663;-76
2022/10/22 11:47:14;;;;;;;11.77;2.50;;;;;;;;;;4991845;28;100255;-79
2022/10/22 11:49:42;;;;;;;13.27;2.75;;;;;;;;;;4991381;28;98461;-76
2022/10/22 11:52:25;;;;;;;13.35;2.78;;;;;;;;;;4992689;28;98531;-76
2022/10/22 11:54:56;;;;;;;6.53;1.98;;;;;;;;;;4995470;28;99995;-75
2022/10/22 11:57:25;;;;;;;13.03;2.70;;;;;;;;;;4981306;28;98581;-75
2022/10/22 11:59:54;;;;;;;12.07;2.92;;;;;;;;;;4992425;28;99333;-77
2022/10/22 12:02:27;;;;;;;13.18;2.60;;;;;;;;;;4992998;28;100561;-75
2022/10/22 12:05:11;;;;;;;10.10;3.40;;;;;;;;;;4989549;28;98623;-77
2022/10/22 12:07:57;;;;;;;20.13;3.88;;;;;;;;;;4992149;28;100144;-76
2022/10/22 12:10:27;;;;;;;11.07;3.22;;;;;;;;;;4992659;28;99325;-75
2022/10/22 12:13:00;;;;;;;24.45;4.95;;;;;;;;;;4993931;28;100149;-75
2022/10/22 12:15:27;;;;;;;14.05;3.47;;;;;;;;;;4992461;28;99018;-76
2022/10/22 12:18:00;;;;;;;12.63;3.03;;;;;;;;;;4994988;28;99437;-75
2022/10/22 12:20:31;;;;;;;11.50;2.75;;;;;;;;;;5007476;28;100009;-77
2022/10/22 12:22:59;;;;;;;14.15;2.38;;;;;;;;;;4991661;28;100846;-74
2022/10/22 12:25:29;;;;;;;8.35;2.25;;;;;;;;;;4991990;28;97925;-74
2022/10/22 12:28:01;;;;;;;16.17;2.92;;;;;;;;;;4992220;28;99458;-75
2022/10/22 12:30:33;;;;;;;14.95;3.53;;;;;;;;;;4992312;28;100166;-76
2022/10/22 12:33:00;;;;;;;21.33;3.45;;;;;;;;;;4991600;28;99327;-75
2022/10/22 12:35:29;;;;;;;17.10;2.85;;;;;;;;;;4992236;28;99881;-74
2022/10/22 12:37:56;;;;;;;9.25;3.25;;;;;;;;;;4990626;28;99978;-75
2022/10/22 12:40:25;;;;;;;14.75;3.00;;;;;;;;;;4995177;28;98394;-75
2022/10/22 12:42:53;;;;;;;13.45;3.13;;;;;;;;;;4990355;28;99581;-75
2022/10/22 12:45:19;;;;;;;13.32;2.72;;;;;;;;;;4991995;28;98477;-77
2022/10/22 12:47:50;;;;;;;9.45;2.35;;;;;;;;;;4992036;28;100196;-77
2022/10/22 12:50:31;;;;;;;9.57;2.30;;;;;;;;;;4991845;28;99442;-77
2022/10/22 12:52:58;;;;;;;24.50;3.92;;;;;;;;;;4992301;28;98606;-78
2022/10/22 12:55:24;;;;;;;15.00;3.30;;;;;;;;;;4992391;28;99275;-77
2022/10/22 12:57:51;;;;;;;16.20;3.08;;;;;;;;;;4990052;28;101038;-76
2022/10/22 13:00:22;;;;;;;13.15;3.53;;;;;;;;;;4995697;28;98503;-76
2022/10/22 13:02:48;;;;;;;17.95;3.35;;;;;;;;;;4990619;28;99512;-76
2022/10/22 13:05:32;;;;;;;11.20;3.25;;;;;;;;;;4991976;28;98533;-76
2022/10/22 13:08:03;;;;;;;21.00;3.55;;;;;;;;;;4991754;28;98994;-76
2022/10/22 13:10:31;;;;;;;15.60;3.10;;;;;;;;;;4991356;28;100150;-76
2022/10/22 13:12:57;;;;;;;10.77;3.28;;;;;;;;;;4991707;28;98538;-76
2022/10/22 13:15:27;;;;;;;13.13;3.13;;;;;;;;;;4992169;28;99899;-76
2022/10/22 13:18:03;;;;;;;13.48;3.35;;;;;;;;;;4990331;28;98533;-76
2022/10/22 13:20:30;;;;;;;10.98;3.10;;;;;;;;;;4992157;28;98575;-75
2022/10/22 13:23:01;;;;;;;19.00;3.78;;;;;;;;;;4994493;28;99976;-76
2022/10/22 13:25:28;;;;;;;16.02;3.72;;;;;;;;;;4991652;28;98579;-76
2022/10/22 13:27:56;;;;;;;11.25;2.70;;;;;;;;;;4991857;28;99048;-75
2022/10/22 13:30:25;;;;;;;18.55;4.38;;;;;;;;;;4991757;28;99364;-76
2022/10/22 13:33:05;;;;;;;14.45;3.10;;;;;;;;;;4990665;28;98743;-76
2022/10/22 13:35:33;;;;;;;16.33;3.83;;;;;;;;;;4991949;28;99935;-76
2022/10/22 13:37:59;;;;;;;14.65;3.30;;;;;;;;;;4991490;28;100347;-76
2022/10/22 13:40:26;;;;;;;13.30;3.20;;;;;;;;;;4991092;28;98135;-75
2022/10/22 13:42:53;;;;;;;12.32;3.38;;;;;;;;;;4990480;28;101545;-76
2022/10/22 13:45:19;;;;;;;18.73;4.13;;;;;;;;;;4994127;28;99625;-76
2022/10/22 13:47:51;;;;;;;17.10;4.22;;;;;;;;;;4989793;28;99206;-76
2022/10/22 13:50:18;;;;;;;21.40;4.28;;;;;;;;;;4992719;28;99780;-76
2022/10/22 13:52:48;;;;;;;11.27;2.90;;;;;;;;;;4990420;28;98581;-76
2022/10/22 13:55:28;;;;;;;10.80;3.22;;;;;;;;;;4993506;28;98436;-76
2022/10/22 13:58:10;;;;;;;17.77;3.38;;;;;;;;;;4994010;28;99344;-75
2022/10/22 14:00:39;;;;;;;12.73;3.50;;;;;;;;;;4994522;28;98575;-75
2022/10/22 14:03:08;;;;;;;15.55;3.08;;;;;;;;;;4994647;28;99348;-76
2022/10/22 14:05:35;;;;;;;16.27;3.58;;;;;;;;;;4995388;28;98834;-76
2022/10/22 14:08:01;;;;;;;21.55;4.65;;;;;;;;;;4997382;28;98835;-75
2022/10/22 14:10:27;;;;;;;16.25;4.28;;;;;;;;;;4994910;28;99482;-75
2022/10/22 14:12:54;;;;;;;17.15;3.17;;;;;;;;;;4994253;28;99247;-75
2022/10/22 14:15:22;;;;;;;17.95;3.20;;;;;;;;;;4993599;28;99735;-75
2022/10/22 14:17:51;;;;;;;18.45;3.70;;;;;;;;;;4994160;28;99293;-75
2022/10/22 14:20:19;;;;;;;15.10;3.60;;;;;;;;;;4994943;28;100255;-75
2022/10/22 14:22:46;;;;;;;19.13;3.85;;;;;;;;;;4994391;28;99135;-75
2022/10/22 14:25:14;;;;;;;14.13;3.63;;;;;;;;;;4994487;28;100562;-75
2022/10/22 14:27:41;;;;;;;16.83;3.70;;;;;;;;;;4994017;28;98996;-78
2022/10/22 14:30:08;;;;;;;17.98;3.58;;;;;;;;;;4998188;28;100129;-77
2022/10/22 14:32:34;;;;;;;13.77;4.22;;;;;;;;;;4993049;28;98604;-75
2022/10/22 14:35:01;;;;;;;15.85;4.20;;;;;;;;;;4993205;28;100083;-78